To NAV CANADA Home Page Login to a new session Search on AWWS site Feedback and Comments Disclaimer Vers la page française équivalente Tips FAQ What's new on the site To the Forecasts and Observations / NOTAM section To "File a Flight Plan" website Publications and other links Update of the User's profile FIC Telephone Numbers My Weather Data Folder Route Weather Data Regional Weather Data Local Weather Data To the Forecasts and Observations / NOTAM section
Request Generated 04/27/2015 at 12:03:35 UTC . Weather information available at that time is displayed.

METAR/TAF

LOURDES-DE-BLANC-SABLON/QC    

METAR CYBX 271200Z 05027G32KT 2 1/2SM -RA BR OVC004 04/03 A2984 RMK
SC8 SLP106=
SPECI CYBX 271155Z 05025G35KT 2 1/2SM -RA BR OVC004 04/03 A2984 RMK
SC8 SLP106=
METAR CYBX 271100Z 05026G33KT 2SM -DZ BR OVC004 04/03 A2982 RMK
FG2ST6 SLP101=
SPECI CYBX 271050Z 06027G32KT 2SM -DZ BR OVC004 04/03 A2982 RMK
FG2ST6 SLP100=
METAR CYBX 271000Z 05026G34KT 15SM BKN007 OVC030 04/03 A2980 RMK
ST5SC3 SLP094=

TAF CYBX 270739Z 2708/2720 05020G30KT P6SM FEW007 BKN030 TEMPO
2708/2713 5SM -DZ BR BKN007 OVC030
FM271300 06020G30KT 5SM -RA BR OVC007
RMK NXT FCST BY 271400Z=
Your time UTC time
Weather data provided by Environment Canada and NAV CANADA